Capitol Logistics 3255


KEYW
Key West International Airport
Key West, Florida, US
KMIA
Miami International Airport
Miami, Florida, US

Activity Log

Date Flight Route Aircraft Duration
10/23/2019 CPX655 CARNU DVALL DVALL3 SF34 0h 41m
06/16/2019 CPX655 CARNU DVALL DVALL3 SF34 0h 37m
06/07/2019 CPX655 CARNU DVALL DVALL3 SF34 0h 36m
04/30/2019 CPX655 CARNU DVALL DVALL3 SF34 0h 35m
04/20/2019 CPX655 VFR SF34 0h 35m
04/03/2019 CPX655 CARNU DVALL DVALL3 SF34 0h 50m
03/21/2019 CPX655 CARNU DVALL DVALL3 SF34 0h 52m
03/06/2019 CPX655 CARNU DVALL DVALL3 SF34 0h 54m

Route Details

Aircraft Information
Primary: Saab 340AF
Backup: Not Available
Route Data
Distance: 113nm
Sched. Duration: 1h 05m
Avg. Duration: 0h 42m (-63m)
Times Flown: 8
Recm'd Route: CARNU DVALL DVALL3
Planned Altitude: 15,000ft
Origin Wx: KEYW 231253Z 04014G20KT 10SM BKN075 21/17 A3016 RMK AO2 SLP213 T02110167
Dest. Wx: KMIA 231253Z 03004KT 10SM FEW030 20/13 A3020 RMK AO2 SLP225 T02000133
Notes:

Financial History
Total Freight: 46,750lbs
Average Load: 5,844lbs/flt
Fuel Used: 5,280lbs
Avg. Fuel Used: 660lbs/flt
Fuel Expense: $5,544
Avg. Fuel Expense: $693
Avg. Fuel Cost: $1.05/lbs
Total Gross Income: $52,360
Pilot Pay: $1,352
Total Expenses: $6,071
Total Revenue: $39,563
Average Revenue: $6,545.00